sensor_id;sensor_type;location;lat;lon;timestamp;temperature;humidity
33903;DHT22;20194;50.950;5.346;2023-02-13T00:01:16;6.60;9.00
33903;DHT22;20194;50.950;5.346;2023-02-13T00:03:41;6.60;9.20
33903;DHT22;20194;50.950;5.346;2023-02-13T00:06:07;6.50;10.10
33903;DHT22;20194;50.950;5.346;2023-02-13T00:08:34;6.60;8.40
33903;DHT22;20194;50.950;5.346;2023-02-13T00:11:00;6.60;7.10
33903;DHT22;20194;50.950;5.346;2023-02-13T00:13:26;6.60;7.40
33903;DHT22;20194;50.950;5.346;2023-02-13T00:15:59;6.50;8.70
33903;DHT22;20194;50.950;5.346;2023-02-13T00:18:26;6.60;9.30
33903;DHT22;20194;50.950;5.346;2023-02-13T00:21:11;6.50;9.10
33903;DHT22;20194;50.950;5.346;2023-02-13T00:23:38;6.40;9.10
33903;DHT22;20194;50.950;5.346;2023-02-13T00:26:14;6.30;8.50
33903;DHT22;20194;50.950;5.346;2023-02-13T00:28:40;6.30;6.70
33903;DHT22;20194;50.950;5.346;2023-02-13T00:31:12;6.20;7.70
33903;DHT22;20194;50.950;5.346;2023-02-13T00:33:38;6.30;9.10
33903;DHT22;20194;50.950;5.346;2023-02-13T00:36:08;6.20;6.70
33903;DHT22;20194;50.950;5.346;2023-02-13T00:38:36;6.10;8.30
33903;DHT22;20194;50.950;5.346;2023-02-13T00:41:03;6.20;9.90
33903;DHT22;20194;50.950;5.346;2023-02-13T00:43:29;6.20;9.30
33903;DHT22;20194;50.950;5.346;2023-02-13T00:45:54;6.20;7.90
33903;DHT22;20194;50.950;5.346;2023-02-13T00:48:21;6.10;8.60
33903;DHT22;20194;50.950;5.346;2023-02-13T00:50:47;6.00;9.10
33903;DHT22;20194;50.950;5.346;2023-02-13T00:53:13;6.00;9.40
33903;DHT22;20194;50.950;5.346;2023-02-13T00:55:38;6.00;10.80
33903;DHT22;20194;50.950;5.346;2023-02-13T00:58:04;6.00;10.00
33903;DHT22;20194;50.950;5.346;2023-02-13T01:00:30;6.00;11.30
33903;DHT22;20194;50.950;5.346;2023-02-13T01:02:55;5.90;10.60
33903;DHT22;20194;50.950;5.346;2023-02-13T01:05:21;5.80;9.80
33903;DHT22;20194;50.950;5.346;2023-02-13T01:07:47;5.70;10.20
33903;DHT22;20194;50.950;5.346;2023-02-13T01:10:12;5.70;10.20
33903;DHT22;20194;50.950;5.346;2023-02-13T01:12:38;5.70;8.70
33903;DHT22;20194;50.950;5.346;2023-02-13T01:15:04;5.70;9.80
33903;DHT22;20194;50.950;5.346;2023-02-13T01:17:30;5.60;10.20
33903;DHT22;20194;50.950;5.346;2023-02-13T01:19:56;5.70;9.90
33903;DHT22;20194;50.950;5.346;2023-02-13T01:22:21;5.60;8.90
33903;DHT22;20194;50.950;5.346;2023-02-13T01:24:47;5.60;9.20
33903;DHT22;20194;50.950;5.346;2023-02-13T01:27:14;5.60;11.30
33903;DHT22;20194;50.950;5.346;2023-02-13T01:29:39;5.60;10.00
33903;DHT22;20194;50.950;5.346;2023-02-13T01:32:05;5.60;8.00
33903;DHT22;20194;50.950;5.346;2023-02-13T01:34:32;5.60;7.90
33903;DHT22;20194;50.950;5.346;2023-02-13T01:36:58;5.60;6.80
33903;DHT22;20194;50.950;5.346;2023-02-13T01:39:24;5.70;8.00
33903;DHT22;20194;50.950;5.346;2023-02-13T01:41:50;5.70;8.70
33903;DHT22;20194;50.950;5.346;2023-02-13T01:47:12;5.50;8.90
33903;DHT22;20194;50.950;5.346;2023-02-13T01:49:39;5.50;11.40
33903;DHT22;20194;50.950;5.346;2023-02-13T01:52:08;5.40;10.00
33903;DHT22;20194;50.950;5.346;2023-02-13T01:54:34;5.40;10.40
33903;DHT22;20194;50.950;5.346;2023-02-13T01:57:15;5.40;8.90
33903;DHT22;20194;50.950;5.346;2023-02-13T01:59:48;5.30;6.60
33903;DHT22;20194;50.950;5.346;2023-02-13T02:02:15;5.30;10.30
33903;DHT22;20194;50.950;5.346;2023-02-13T02:04:42;5.30;12.50
33903;DHT22;20194;50.950;5.346;2023-02-13T02:07:13;5.20;10.80
33903;DHT22;20194;50.950;5.346;2023-02-13T02:09:42;5.20;10.20
33903;DHT22;20194;50.950;5.346;2023-02-13T02:12:28;5.20;10.30
33903;DHT22;20194;50.950;5.346;2023-02-13T02:14:57;5.10;8.70
33903;DHT22;20194;50.950;5.346;2023-02-13T02:17:25;5.20;9.90
33903;DHT22;20194;50.950;5.346;2023-02-13T02:36:28;5.00;25.50
33903;DHT22;20194;50.950;5.346;2023-02-13T02:44:55;5.10;25.40
33903;DHT22;20194;50.950;5.346;2023-02-13T02:48:03;5.20;24.20
33903;DHT22;20194;50.950;5.346;2023-02-13T02:50:52;5.20;23.90
33903;DHT22;20194;50.950;5.346;2023-02-13T02:56:22;5.20;27.00
33903;DHT22;20194;50.950;5.346;2023-02-13T02:59:04;5.10;29.20
33903;DHT22;20194;50.950;5.346;2023-02-13T03:01:52;5.10;30.90
33903;DHT22;20194;50.950;5.346;2023-02-13T03:04:40;5.10;30.30
33903;DHT22;20194;50.950;5.346;2023-02-13T03:07:26;5.10;31.80
33903;DHT22;20194;50.950;5.346;2023-02-13T03:10:30;5.00;31.60
33903;DHT22;20194;50.950;5.346;2023-02-13T03:13:27;4.90;33.80
33903;DHT22;20194;50.950;5.346;2023-02-13T03:15:57;4.70;37.30
33903;DHT22;20194;50.950;5.346;2023-02-13T03:18:45;4.60;40.20
33903;DHT22;20194;50.950;5.346;2023-02-13T03:32:41;4.50;40.00
33903;DHT22;20194;50.950;5.346;2023-02-13T03:38:17;4.40;41.00
33903;DHT22;20194;50.950;5.346;2023-02-13T03:41:06;4.50;42.50
33903;DHT22;20194;50.950;5.346;2023-02-13T03:46:32;4.80;39.10
33903;DHT22;20194;50.950;5.346;2023-02-13T03:49:02;4.70;37.50
33903;DHT22;20194;50.950;5.346;2023-02-13T03:52:10;4.80;38.00
33903;DHT22;20194;50.950;5.346;2023-02-13T03:54:49;4.60;37.80
33903;DHT22;20194;50.950;5.346;2023-02-13T03:57:37;4.50;41.10
33903;DHT22;20194;50.950;5.346;2023-02-13T04:00:24;4.50;40.10
33903;DHT22;20194;50.950;5.346;2023-02-13T04:03:06;4.30;39.90
33903;DHT22;20194;50.950;5.346;2023-02-13T04:05:38;4.40;40.30
33903;DHT22;20194;50.950;5.346;2023-02-13T04:08:06;4.30;41.20
33903;DHT22;20194;50.950;5.346;2023-02-13T04:10:34;4.40;41.30
33903;DHT22;20194;50.950;5.346;2023-02-13T04:13:32;4.40;40.50
33903;DHT22;20194;50.950;5.346;2023-02-13T04:16:10;4.40;38.10
33903;DHT22;20194;50.950;5.346;2023-02-13T04:18:37;4.20;37.10
33903;DHT22;20194;50.950;5.346;2023-02-13T04:21:05;4.20;40.60
33903;DHT22;20194;50.950;5.346;2023-02-13T04:23:30;3.90;41.20
33903;DHT22;20194;50.950;5.346;2023-02-13T04:25:57;3.70;42.70
33903;DHT22;20194;50.950;5.346;2023-02-13T04:28:24;3.70;47.30
33903;DHT22;20194;50.950;5.346;2023-02-13T04:30:50;3.70;49.70
33903;DHT22;20194;50.950;5.346;2023-02-13T04:33:16;3.70;46.50
33903;DHT22;20194;50.950;5.346;2023-02-13T04:35:42;3.90;48.50
33903;DHT22;20194;50.950;5.346;2023-02-13T04:38:08;3.90;43.60
33903;DHT22;20194;50.950;5.346;2023-02-13T04:40:33;3.80;47.50
33903;DHT22;20194;50.950;5.346;2023-02-13T04:42:59;3.80;48.00
33903;DHT22;20194;50.950;5.346;2023-02-13T04:45:25;4.00;47.30
33903;DHT22;20194;50.950;5.346;2023-02-13T04:47:52;4.20;45.10
33903;DHT22;20194;50.950;5.346;2023-02-13T04:50:19;4.20;42.40
33903;DHT22;20194;50.950;5.346;2023-02-13T04:52:45;4.30;40.90
33903;DHT22;20194;50.950;5.346;2023-02-13T04:55:11;4.30;40.00
33903;DHT22;20194;50.950;5.346;2023-02-13T04:57:37;4.30;39.00
33903;DHT22;20194;50.950;5.346;2023-02-13T05:00:05;4.20;38.90
33903;DHT22;20194;50.950;5.346;2023-02-13T05:02:31;4.30;38.60
33903;DHT22;20194;50.950;5.346;2023-02-13T05:04:57;4.40;38.00
33903;DHT22;20194;50.950;5.346;2023-02-13T05:07:23;4.50;36.40
33903;DHT22;20194;50.950;5.346;2023-02-13T05:09:49;4.40;34.40
33903;DHT22;20194;50.950;5.346;2023-02-13T05:12:15;4.30;36.50
33903;DHT22;20194;50.950;5.346;2023-02-13T05:14:40;4.30;37.20
33903;DHT22;20194;50.950;5.346;2023-02-13T05:17:06;4.30;36.20
33903;DHT22;20194;50.950;5.346;2023-02-13T05:19:32;4.30;35.30
33903;DHT22;20194;50.950;5.346;2023-02-13T05:21:57;4.40;35.90
33903;DHT22;20194;50.950;5.346;2023-02-13T05:24:41;4.40;32.40
33903;DHT22;20194;50.950;5.346;2023-02-13T05:27:08;4.30;34.60
33903;DHT22;20194;50.950;5.346;2023-02-13T05:29:33;4.40;34.80
33903;DHT22;20194;50.950;5.346;2023-02-13T05:31:59;4.30;34.10
33903;DHT22;20194;50.950;5.346;2023-02-13T05:34:26;4.40;33.90
33903;DHT22;20194;50.950;5.346;2023-02-13T05:36:53;4.40;31.80
33903;DHT22;20194;50.950;5.346;2023-02-13T05:39:18;4.10;31.90
33903;DHT22;20194;50.950;5.346;2023-02-13T05:41:45;4.00;40.20
33903;DHT22;20194;50.950;5.346;2023-02-13T05:44:12;4.00;38.90
33903;DHT22;20194;50.950;5.346;2023-02-13T05:46:39;4.10;38.70
33903;DHT22;20194;50.950;5.346;2023-02-13T05:49:06;4.10;38.60
33903;DHT22;20194;50.950;5.346;2023-02-13T05:51:32;4.10;38.00
33903;DHT22;20194;50.950;5.346;2023-02-13T05:53:57;4.20;37.80
33903;DHT22;20194;50.950;5.346;2023-02-13T05:56:23;4.20;37.50
33903;DHT22;20194;50.950;5.346;2023-02-13T05:58:53;4.30;36.80
33903;DHT22;20194;50.950;5.346;2023-02-13T06:01:20;4.40;35.90
33903;DHT22;20194;50.950;5.346;2023-02-13T06:03:46;4.20;36.60
33903;DHT22;20194;50.950;5.346;2023-02-13T06:06:12;4.30;36.10
33903;DHT22;20194;50.950;5.346;2023-02-13T06:08:38;4.20;36.60
33903;DHT22;20194;50.950;5.346;2023-02-13T06:11:04;4.20;37.70
33903;DHT22;20194;50.950;5.346;2023-02-13T06:13:30;4.20;36.40
33903;DHT22;20194;50.950;5.346;2023-02-13T06:15:56;4.00;36.70
33903;DHT22;20194;50.950;5.346;2023-02-13T06:18:21;4.10;38.00
33903;DHT22;20194;50.950;5.346;2023-02-13T06:20:47;4.00;37.80
33903;DHT22;20194;50.950;5.346;2023-02-13T06:23:13;3.80;38.60
33903;DHT22;20194;50.950;5.346;2023-02-13T06:25:40;3.90;39.60
33903;DHT22;20194;50.950;5.346;2023-02-13T06:28:06;4.00;37.90
33903;DHT22;20194;50.950;5.346;2023-02-13T06:30:33;4.00;36.20
33903;DHT22;20194;50.950;5.346;2023-02-13T06:32:58;4.20;34.70
33903;DHT22;20194;50.950;5.346;2023-02-13T06:35:24;4.10;32.50
33903;DHT22;20194;50.950;5.346;2023-02-13T06:37:50;4.10;32.80
33903;DHT22;20194;50.950;5.346;2023-02-13T06:40:16;4.00;32.90
33903;DHT22;20194;50.950;5.346;2023-02-13T06:42:43;4.00;34.30
33903;DHT22;20194;50.950;5.346;2023-02-13T06:45:10;4.00;34.80
33903;DHT22;20194;50.950;5.346;2023-02-13T06:47:40;4.10;33.70
33903;DHT22;20194;50.950;5.346;2023-02-13T06:50:06;4.10;32.20
33903;DHT22;20194;50.950;5.346;2023-02-13T06:52:32;4.20;32.20
33903;DHT22;20194;50.950;5.346;2023-02-13T06:54:59;4.20;30.60
33903;DHT22;20194;50.950;5.346;2023-02-13T06:57:25;4.30;29.90
33903;DHT22;20194;50.950;5.346;2023-02-13T06:59:51;4.30;29.40
33903;DHT22;20194;50.950;5.346;2023-02-13T07:02:17;4.30;28.60
33903;DHT22;20194;50.950;5.346;2023-02-13T07:04:43;4.30;28.90
33903;DHT22;20194;50.950;5.346;2023-02-13T07:07:08;4.30;28.80
33903;DHT22;20194;50.950;5.346;2023-02-13T07:09:35;4.40;28.70
33903;DHT22;20194;50.950;5.346;2023-02-13T07:12:04;4.40;28.20
33903;DHT22;20194;50.950;5.346;2023-02-13T07:14:30;4.40;27.60
33903;DHT22;20194;50.950;5.346;2023-02-13T07:16:56;4.40;27.00
33903;DHT22;20194;50.950;5.346;2023-02-13T07:19:21;4.40;27.50
33903;DHT22;20194;50.950;5.346;2023-02-13T07:21:47;4.50;27.50
33903;DHT22;20194;50.950;5.346;2023-02-13T07:24:13;4.30;27.20
33903;DHT22;20194;50.950;5.346;2023-02-13T07:26:39;4.30;29.20
33903;DHT22;20194;50.950;5.346;2023-02-13T07:29:05;4.30;30.50
33903;DHT22;20194;50.950;5.346;2023-02-13T07:31:32;4.40;29.40
33903;DHT22;20194;50.950;5.346;2023-02-13T07:33:59;4.50;28.40
33903;DHT22;20194;50.950;5.346;2023-02-13T07:36:25;4.40;26.60
33903;DHT22;20194;50.950;5.346;2023-02-13T07:38:51;4.40;27.20
33903;DHT22;20194;50.950;5.346;2023-02-13T07:41:16;4.40;27.70
33903;DHT22;20194;50.950;5.346;2023-02-13T07:43:42;4.50;26.50
33903;DHT22;20194;50.950;5.346;2023-02-13T07:46:08;4.50;26.10
33903;DHT22;20194;50.950;5.346;2023-02-13T07:48:34;4.40;28.30
33903;DHT22;20194;50.950;5.346;2023-02-13T07:51:03;4.30;29.40
33903;DHT22;20194;50.950;5.346;2023-02-13T07:53:29;4.40;30.00
33903;DHT22;20194;50.950;5.346;2023-02-13T07:55:55;4.50;28.90
33903;DHT22;20194;50.950;5.346;2023-02-13T07:58:21;4.50;28.30
33903;DHT22;20194;50.950;5.346;2023-02-13T08:00:46;4.60;26.80
33903;DHT22;20194;50.950;5.346;2023-02-13T08:03:12;4.70;26.20
33903;DHT22;20194;50.950;5.346;2023-02-13T08:05:38;4.60;26.70
33903;DHT22;20194;50.950;5.346;2023-02-13T08:08:05;4.60;27.40
33903;DHT22;20194;50.950;5.346;2023-02-13T08:10:31;4.70;28.70
33903;DHT22;20194;50.950;5.346;2023-02-13T08:13:16;4.70;27.00
33903;DHT22;20194;50.950;5.346;2023-02-13T08:15:42;4.50;30.90
33903;DHT22;20194;50.950;5.346;2023-02-13T08:18:09;4.50;32.80
33903;DHT22;20194;50.950;5.346;2023-02-13T08:20:35;4.50;33.20
33903;DHT22;20194;50.950;5.346;2023-02-13T08:23:02;4.60;33.60
33903;DHT22;20194;50.950;5.346;2023-02-13T08:25:28;4.50;35.10
33903;DHT22;20194;50.950;5.346;2023-02-13T08:27:54;4.60;35.20
33903;DHT22;20194;50.950;5.346;2023-02-13T08:30:21;4.60;36.20
33903;DHT22;20194;50.950;5.346;2023-02-13T08:32:46;4.70;34.80
33903;DHT22;20194;50.950;5.346;2023-02-13T08:35:12;4.80;35.20
33903;DHT22;20194;50.950;5.346;2023-02-13T08:37:38;5.00;33.80
33903;DHT22;20194;50.950;5.346;2023-02-13T08:40:04;5.10;31.00
33903;DHT22;20194;50.950;5.346;2023-02-13T08:42:30;5.00;31.70
33903;DHT22;20194;50.950;5.346;2023-02-13T08:44:55;4.80;36.30
33903;DHT22;20194;50.950;5.346;2023-02-13T08:47:22;4.90;37.40
33903;DHT22;20194;50.950;5.346;2023-02-13T08:49:47;4.90;37.40
33903;DHT22;20194;50.950;5.346;2023-02-13T08:52:13;5.00;37.50
33903;DHT22;20194;50.950;5.346;2023-02-13T08:54:38;5.10;37.40
33903;DHT22;20194;50.950;5.346;2023-02-13T08:57:04;5.00;41.70
33903;DHT22;20194;50.950;5.346;2023-02-13T08:59:30;5.10;40.50
33903;DHT22;20194;50.950;5.346;2023-02-13T09:01:56;5.30;40.30
33903;DHT22;20194;50.950;5.346;2023-02-13T09:04:22;5.40;39.60
33903;DHT22;20194;50.950;5.346;2023-02-13T09:06:48;5.40;39.80
33903;DHT22;20194;50.950;5.346;2023-02-13T09:09:14;5.30;41.50
33903;DHT22;20194;50.950;5.346;2023-02-13T09:11:40;5.50;43.70
33903;DHT22;20194;50.950;5.346;2023-02-13T09:14:06;5.70;43.20
33903;DHT22;20194;50.950;5.346;2023-02-13T09:16:32;5.80;41.00
33903;DHT22;20194;50.950;5.346;2023-02-13T09:18:57;6.10;43.30
33903;DHT22;20194;50.950;5.346;2023-02-13T09:21:23;6.30;43.10
33903;DHT22;20194;50.950;5.346;2023-02-13T09:23:49;6.60;41.50
33903;DHT22;20194;50.950;5.346;2023-02-13T09:26:18;6.90;38.70
33903;DHT22;20194;50.950;5.346;2023-02-13T09:28:44;7.10;36.40
33903;DHT22;20194;50.950;5.346;2023-02-13T09:31:10;7.20;31.90
33903;DHT22;20194;50.950;5.346;2023-02-13T09:33:36;7.40;31.70
33903;DHT22;20194;50.950;5.346;2023-02-13T09:36:04;7.60;30.80
33903;DHT22;20194;50.950;5.346;2023-02-13T09:38:30;7.70;26.60
33903;DHT22;20194;50.950;5.346;2023-02-13T09:41:03;7.90;27.40
33903;DHT22;20194;50.950;5.346;2023-02-13T09:46:19;8.40;24.00
33903;DHT22;20194;50.950;5.346;2023-02-13T09:48:50;8.20;22.50
33903;DHT22;20194;50.950;5.346;2023-02-13T09:51:19;8.20;27.00
33903;DHT22;20194;50.950;5.346;2023-02-13T09:54:00;8.50;24.20
33903;DHT22;20194;50.950;5.346;2023-02-13T09:56:43;8.70;23.20
33903;DHT22;20194;50.950;5.346;2023-02-13T10:02:00;9.40;17.40
33903;DHT22;20194;50.950;5.346;2023-02-13T10:05:13;9.70;9.10
33903;DHT22;20194;50.950;5.346;2023-02-13T10:18:03;9.90;7.20
33903;DHT22;20194;50.950;5.346;2023-02-13T10:20:35;10.20;3.10
33903;DHT22;20194;50.950;5.346;2023-02-13T10:23:24;10.40;1.10
33903;DHT22;20194;50.950;5.346;2023-02-13T10:31:40;11.30;1.00
33903;DHT22;20194;50.950;5.346;2023-02-13T10:34:14;11.20;1.00
33903;DHT22;20194;50.950;5.346;2023-02-13T10:36:44;11.10;1.00
33903;DHT22;20194;50.950;5.346;2023-02-13T10:39:23;11.40;1.00
33903;DHT22;20194;50.950;5.346;2023-02-13T10:42:18;11.30;1.00
33903;DHT22;20194;50.950;5.346;2023-02-13T10:53:18;12.00;1.00
33903;DHT22;20194;50.950;5.346;2023-02-13T11:04:09;12.30;1.00
33903;DHT22;20194;50.950;5.346;2023-02-13T11:06:37;12.30;1.00
33903;DHT22;20194;50.950;5.346;2023-02-13T11:09:08;12.20;1.00
33903;DHT22;20194;50.950;5.346;2023-02-13T11:11:36;12.40;1.00
33903;DHT22;20194;50.950;5.346;2023-02-13T11:14:10;12.20;1.00
33903;DHT22;20194;50.950;5.346;2023-02-13T11:17:03;12.60;1.00
33903;DHT22;20194;50.950;5.346;2023-02-13T11:19:38;12.90;1.00
33903;DHT22;20194;50.950;5.346;2023-02-13T11:22:11;13.20;1.00
33903;DHT22;20194;50.950;5.346;2023-02-13T11:24:41;13.30;1.00
33903;DHT22;20194;50.950;5.346;2023-02-13T11:27:10;13.10;1.00
33903;DHT22;20194;50.950;5.346;2023-02-13T11:29:55;12.90;1.00
33903;DHT22;20194;50.950;5.346;2023-02-13T11:32:29;13.10;1.00
33903;DHT22;20194;50.950;5.346;2023-02-13T11:34:55;13.30;1.00
33903;DHT22;20194;50.950;5.346;2023-02-13T11:37:26;13.30;1.00
33903;DHT22;20194;50.950;5.346;2023-02-13T11:39:57;13.40;1.00
33903;DHT22;20194;50.950;5.346;2023-02-13T11:42:27;13.30;1.00
33903;DHT22;20194;50.950;5.346;2023-02-13T11:50:00;13.40;1.00
33903;DHT22;20194;50.950;5.346;2023-02-13T11:52:34;13.60;1.00
33903;DHT22;20194;50.950;5.346;2023-02-13T11:55:05;13.80;1.00
33903;DHT22;20194;50.950;5.346;2023-02-13T11:57:58;13.80;1.00
33903;DHT22;20194;50.950;5.346;2023-02-13T12:00:33;14.00;1.00
33903;DHT22;20194;50.950;5.346;2023-02-13T12:06:16;13.70;1.00
33903;DHT22;20194;50.950;5.346;2023-02-13T12:08:47;13.70;1.00
33903;DHT22;20194;50.950;5.346;2023-02-13T12:13:42;13.90;1.00
33903;DHT22;20194;50.950;5.346;2023-02-13T12:16:28;14.00;1.00
33903;DHT22;20194;50.950;5.346;2023-02-13T12:18:57;14.30;1.00
33903;DHT22;20194;50.950;5.346;2023-02-13T12:24:44;13.70;1.00
33903;DHT22;20194;50.950;5.346;2023-02-13T12:35:44;13.50;1.00
33903;DHT22;20194;50.950;5.346;2023-02-13T12:52:42;13.80;1.00
33903;DHT22;20194;50.950;5.346;2023-02-13T12:58:38;13.90;1.00
33903;DHT22;20194;50.950;5.346;2023-02-13T13:01:24;13.80;1.00
33903;DHT22;20194;50.950;5.346;2023-02-13T13:10:09;13.90;1.00
33903;DHT22;20194;50.950;5.346;2023-02-13T13:15:10;13.70;1.00
33903;DHT22;20194;50.950;5.346;2023-02-13T13:20:47;13.70;1.00
33903;DHT22;20194;50.950;5.346;2023-02-13T13:23:31;13.70;1.00
33903;DHT22;20194;50.950;5.346;2023-02-13T13:26:39;13.70;1.00
33903;DHT22;20194;50.950;5.346;2023-02-13T13:29:18;13.80;1.00
33903;DHT22;20194;50.950;5.346;2023-02-13T13:31:54;13.90;1.00
33903;DHT22;20194;50.950;5.346;2023-02-13T13:34:23;14.10;1.00
33903;DHT22;20194;50.950;5.346;2023-02-13T13:45:27;14.30;1.00
33903;DHT22;20194;50.950;5.346;2023-02-13T13:50:41;13.80;1.00
33903;DHT22;20194;50.950;5.346;2023-02-13T13:53:17;14.00;1.00
33903;DHT22;20194;50.950;5.346;2023-02-13T13:58:30;13.90;1.00
33903;DHT22;20194;50.950;5.346;2023-02-13T14:03:43;13.90;1.00
33903;DHT22;20194;50.950;5.346;2023-02-13T14:06:12;14.00;1.00
33903;DHT22;20194;50.950;5.346;2023-02-13T14:11:39;14.00;1.00
33903;DHT22;20194;50.950;5.346;2023-02-13T14:14:42;14.10;1.00
33903;DHT22;20194;50.950;5.346;2023-02-13T14:17:12;14.20;1.00
33903;DHT22;20194;50.950;5.346;2023-02-13T14:19:39;14.30;1.00
33903;DHT22;20194;50.950;5.346;2023-02-13T14:25:06;14.30;1.00
33903;DHT22;20194;50.950;5.346;2023-02-13T14:27:58;14.30;1.00
33903;DHT22;20194;50.950;5.346;2023-02-13T14:30:31;14.20;1.00
33903;DHT22;20194;50.950;5.346;2023-02-13T14:33:06;14.00;1.00
33903;DHT22;20194;50.950;5.346;2023-02-13T14:35:34;14.00;1.00
33903;DHT22;20194;50.950;5.346;2023-02-13T14:38:04;14.00;1.00
33903;DHT22;20194;50.950;5.346;2023-02-13T14:40:50;13.90;1.00
33903;DHT22;20194;50.950;5.346;2023-02-13T14:57:03;14.20;1.00
33903;DHT22;20194;50.950;5.346;2023-02-13T14:59:33;14.40;1.00
33903;DHT22;20194;50.950;5.346;2023-02-13T15:02:14;14.50;1.00
33903;DHT22;20194;50.950;5.346;2023-02-13T15:04:44;14.40;1.00
33903;DHT22;20194;50.950;5.346;2023-02-13T15:07:23;14.40;1.00
33903;DHT22;20194;50.950;5.346;2023-02-13T15:12:38;14.20;1.00
33903;DHT22;20194;50.950;5.346;2023-02-13T15:15:28;14.30;1.00
33903;DHT22;20194;50.950;5.346;2023-02-13T15:17:59;14.10;1.00
33903;DHT22;20194;50.950;5.346;2023-02-13T15:20:29;14.20;1.00
33903;DHT22;20194;50.950;5.346;2023-02-13T15:22:56;14.20;1.00
33903;DHT22;20194;50.950;5.346;2023-02-13T15:25:30;14.30;1.00
33903;DHT22;20194;50.950;5.346;2023-02-13T15:27:58;14.30;1.00
33903;DHT22;20194;50.950;5.346;2023-02-13T15:30:27;14.30;1.00
33903;DHT22;20194;50.950;5.346;2023-02-13T15:32:58;14.30;1.00
33903;DHT22;20194;50.950;5.346;2023-02-13T15:35:33;14.30;1.00
33903;DHT22;20194;50.950;5.346;2023-02-13T15:38:17;14.40;1.00
33903;DHT22;20194;50.950;5.346;2023-02-13T15:40:43;14.20;1.00
33903;DHT22;20194;50.950;5.346;2023-02-13T15:43:33;14.10;1.00
33903;DHT22;20194;50.950;5.346;2023-02-13T15:46:05;14.20;1.00
33903;DHT22;20194;50.950;5.346;2023-02-13T15:48:32;14.40;1.00
33903;DHT22;20194;50.950;5.346;2023-02-13T15:51:00;14.30;1.00
33903;DHT22;20194;50.950;5.346;2023-02-13T15:53:26;14.30;1.00
33903;DHT22;20194;50.950;5.346;2023-02-13T15:55:57;14.30;1.00
33903;DHT22;20194;50.950;5.346;2023-02-13T15:58:27;14.20;1.00
33903;DHT22;20194;50.950;5.346;2023-02-13T16:00:54;14.10;1.00
33903;DHT22;20194;50.950;5.346;2023-02-13T16:03:21;14.10;1.00
33903;DHT22;20194;50.950;5.346;2023-02-13T16:05:49;14.10;1.00
33903;DHT22;20194;50.950;5.346;2023-02-13T16:14:04;14.30;1.00
33903;DHT22;20194;50.950;5.346;2023-02-13T16:16:35;14.30;1.00
33903;DHT22;20194;50.950;5.346;2023-02-13T16:19:06;14.30;1.00
33903;DHT22;20194;50.950;5.346;2023-02-13T16:21:39;14.30;1.00
33903;DHT22;20194;50.950;5.346;2023-02-13T16:24:06;14.20;1.00
33903;DHT22;20194;50.950;5.346;2023-02-13T16:26:34;14.00;1.00
33903;DHT22;20194;50.950;5.346;2023-02-13T16:29:01;14.00;1.00
33903;DHT22;20194;50.950;5.346;2023-02-13T16:31:27;13.70;1.00
33903;DHT22;20194;50.950;5.346;2023-02-13T16:33:53;13.70;1.00
33903;DHT22;20194;50.950;5.346;2023-02-13T16:36:27;13.60;1.00
33903;DHT22;20194;50.950;5.346;2023-02-13T16:38:54;13.70;1.00
33903;DHT22;20194;50.950;5.346;2023-02-13T16:43:59;13.60;1.00
33903;DHT22;20194;50.950;5.346;2023-02-13T16:46:38;13.40;1.00
33903;DHT22;20194;50.950;5.346;2023-02-13T16:51:35;13.20;1.00
33903;DHT22;20194;50.950;5.346;2023-02-13T16:56:55;13.30;1.00
33903;DHT22;20194;50.950;5.346;2023-02-13T17:02:28;13.40;1.00
33903;DHT22;20194;50.950;5.346;2023-02-13T17:07:32;13.40;1.00
33903;DHT22;20194;50.950;5.346;2023-02-13T17:10:01;13.40;1.00
33903;DHT22;20194;50.950;5.346;2023-02-13T17:12:30;13.40;1.00
33903;DHT22;20194;50.950;5.346;2023-02-13T17:14:58;13.30;1.00
33903;DHT22;20194;50.950;5.346;2023-02-13T17:17:27;13.10;1.00
33903;DHT22;20194;50.950;5.346;2023-02-13T17:19:53;12.90;1.00
33903;DHT22;20194;50.950;5.346;2023-02-13T17:22:30;12.90;1.00
33903;DHT22;20194;50.950;5.346;2023-02-13T17:25:00;12.90;1.00
33903;DHT22;20194;50.950;5.346;2023-02-13T17:27:27;12.80;1.00
33903;DHT22;20194;50.950;5.346;2023-02-13T17:29:53;13.00;1.00
33903;DHT22;20194;50.950;5.346;2023-02-13T17:32:22;13.00;1.00
33903;DHT22;20194;50.950;5.346;2023-02-13T17:34:49;13.00;1.00
33903;DHT22;20194;50.950;5.346;2023-02-13T17:37:21;12.90;1.00
33903;DHT22;20194;50.950;5.346;2023-02-13T17:39:48;12.90;1.00
33903;DHT22;20194;50.950;5.346;2023-02-13T17:42:25;12.80;1.00
33903;DHT22;20194;50.950;5.346;2023-02-13T17:44:52;12.80;1.00
33903;DHT22;20194;50.950;5.346;2023-02-13T17:47:19;12.70;1.00
33903;DHT22;20194;50.950;5.346;2023-02-13T17:49:46;12.60;1.00
33903;DHT22;20194;50.950;5.346;2023-02-13T17:52:24;12.60;1.00
33903;DHT22;20194;50.950;5.346;2023-02-13T17:54:51;12.60;1.00
33903;DHT22;20194;50.950;5.346;2023-02-13T17:57:17;12.50;1.00
33903;DHT22;20194;50.950;5.346;2023-02-13T17:59:43;12.40;1.00
33903;DHT22;20194;50.950;5.346;2023-02-13T18:02:22;12.40;1.00
33903;DHT22;20194;50.950;5.346;2023-02-13T18:04:49;12.30;1.00
33903;DHT22;20194;50.950;5.346;2023-02-13T18:07:19;12.20;1.00
33903;DHT22;20194;50.950;5.346;2023-02-13T18:09:45;12.10;1.00
33903;DHT22;20194;50.950;5.346;2023-02-13T18:12:14;11.80;1.00
33903;DHT22;20194;50.950;5.346;2023-02-13T18:14:40;11.70;1.00
33903;DHT22;20194;50.950;5.346;2023-02-13T18:17:06;11.80;1.00
33903;DHT22;20194;50.950;5.346;2023-02-13T18:19:33;11.70;1.00
33903;DHT22;20194;50.950;5.346;2023-02-13T18:21:58;11.90;1.00
33903;DHT22;20194;50.950;5.346;2023-02-13T18:24:29;11.90;1.00
33903;DHT22;20194;50.950;5.346;2023-02-13T18:26:55;11.60;1.00
33903;DHT22;20194;50.950;5.346;2023-02-13T18:29:22;11.40;1.00
33903;DHT22;20194;50.950;5.346;2023-02-13T18:31:47;11.30;1.00
33903;DHT22;20194;50.950;5.346;2023-02-13T18:34:16;11.40;1.00
33903;DHT22;20194;50.950;5.346;2023-02-13T18:36:41;11.50;1.00
33903;DHT22;20194;50.950;5.346;2023-02-13T18:39:07;11.50;1.00
33903;DHT22;20194;50.950;5.346;2023-02-13T18:41:33;11.60;1.00
33903;DHT22;20194;50.950;5.346;2023-02-13T18:43:58;11.60;1.00
33903;DHT22;20194;50.950;5.346;2023-02-13T18:46:24;11.60;1.00
33903;DHT22;20194;50.950;5.346;2023-02-13T18:48:50;11.40;1.00
33903;DHT22;20194;50.950;5.346;2023-02-13T18:51:16;11.40;1.00
33903;DHT22;20194;50.950;5.346;2023-02-13T18:53:42;11.40;1.00
33903;DHT22;20194;50.950;5.346;2023-02-13T18:56:08;11.50;1.00
33903;DHT22;20194;50.950;5.346;2023-02-13T18:58:37;11.50;1.00
33903;DHT22;20194;50.950;5.346;2023-02-13T19:01:14;11.40;1.00
33903;DHT22;20194;50.950;5.346;2023-02-13T19:03:44;11.40;1.00
33903;DHT22;20194;50.950;5.346;2023-02-13T19:06:11;11.20;1.00
33903;DHT22;20194;50.950;5.346;2023-02-13T19:08:37;11.20;1.00
33903;DHT22;20194;50.950;5.346;2023-02-13T19:11:06;11.10;1.00
33903;DHT22;20194;50.950;5.346;2023-02-13T19:13:32;11.10;1.00
33903;DHT22;20194;50.950;5.346;2023-02-13T19:16:11;11.10;1.00
33903;DHT22;20194;50.950;5.346;2023-02-13T19:18:41;11.10;1.00
33903;DHT22;20194;50.950;5.346;2023-02-13T19:21:08;11.00;1.00